North New Portland, Maine
Current Conditions -  °F | °C
As of 6:55 AM on Thursday 27 Nov 2014 (Local Time) from KWVL Reporting Station
Clear Clear  
Wind Chill: 14°   Ceiling: Unl
Heat Index: 27°   Visibility: 10mi
Dew Point: 19°   Wind: 16mph
Humidity: 74%   Direction: 330°NNW
Pressure: 29.75"   Gusts: 24mph
Location:  44.92°N, 70.02°W
Report Text: KWVL 271155Z 33014G21KT 10SM CLR M03/M07 A2975 RMK AO1 60001 70017 11010 21030 52014
Loading
Personal Weather Stations






























Interactive Weather Map New forecast layout! Learn more

10-Day Weather Forecast

Advertisements
Track Severe Weather on mobile